createdAt,value
2023-04-18T00:00:05.211Z,218.84
2023-04-18T00:01:05.218Z,219.15
2023-04-18T00:02:05.317Z,219.54
2023-04-18T00:03:05.438Z,221.36
2023-04-18T00:04:05.543Z,220.46
2023-04-18T00:05:05.346Z,217.92
2023-04-18T00:06:05.204Z,219.75
2023-04-18T00:07:05.234Z,219.78
2023-04-18T00:08:05.277Z,218.73
2023-04-18T00:09:05.325Z,220.21
2023-04-18T00:10:05.275Z,221.17
2023-04-18T00:11:05.261Z,217.00
2023-04-18T00:12:05.243Z,217.64
2023-04-18T00:13:05.298Z,218.18
2023-04-18T00:14:05.257Z,218.09
2023-04-18T00:15:05.326Z,218.53
2023-04-18T00:16:05.271Z,213.37
2023-04-18T00:17:05.397Z,217.85
2023-04-18T00:18:05.411Z,217.27
2023-04-18T00:19:05.359Z,217.94
2023-04-18T00:20:05.344Z,216.93
2023-04-18T00:21:05.322Z,216.47
2023-04-18T00:22:05.359Z,217.67
2023-04-18T00:23:05.343Z,217.14
2023-04-18T00:24:05.335Z,216.37
2023-04-18T00:25:05.346Z,210.81
2023-04-18T00:26:05.345Z,214.68
2023-04-18T00:27:05.351Z,217.82
2023-04-18T00:28:05.404Z,214.54
2023-04-18T00:29:05.404Z,215.95
2023-04-18T00:30:05.445Z,215.52
2023-04-18T00:31:05.454Z,209.21
2023-04-18T00:32:05.460Z,210.31
2023-04-18T00:33:05.499Z,213.23
2023-04-18T00:34:05.435Z,215.05
2023-04-18T00:35:05.478Z,212.80
2023-04-18T00:36:05.477Z,215.12
2023-04-18T00:37:05.489Z,215.60
2023-04-18T00:38:05.506Z,214.95
2023-04-18T00:39:05.531Z,215.29
2023-04-18T00:40:05.563Z,213.57
2023-04-18T00:41:05.560Z,217.11
2023-04-18T00:42:05.595Z,209.06
2023-04-18T00:43:05.568Z,213.29
2023-04-18T00:44:05.612Z,213.29
2023-04-18T00:45:05.632Z,213.22
2023-04-18T00:46:05.728Z,211.47
2023-04-18T00:47:05.630Z,210.30
2023-04-18T00:48:05.651Z,215.05
2023-04-18T00:49:05.668Z,212.52
2023-04-18T00:50:05.644Z,214.21
2023-04-18T00:51:05.696Z,210.57
2023-04-18T00:52:05.737Z,212.28
2023-04-18T00:53:05.702Z,212.37
2023-04-18T00:54:05.729Z,211.94
2023-04-18T00:55:05.763Z,211.19
2023-04-18T00:56:05.757Z,210.36
2023-04-18T00:57:05.731Z,213.26
2023-04-18T00:58:05.807Z,211.74
2023-04-18T00:59:05.775Z,210.36
2023-04-18T01:00:05.823Z,210.76
2023-04-18T01:01:05.817Z,208.93
2023-04-18T01:02:05.973Z,207.71
2023-04-18T01:03:05.936Z,211.77
2023-04-18T01:04:05.890Z,210.38
2023-04-18T01:05:05.859Z,208.16
2023-04-18T01:06:05.851Z,208.28
2023-04-18T01:07:05.936Z,209.29
2023-04-18T01:08:05.901Z,210.89
2023-04-18T01:09:05.937Z,209.55
2023-04-18T01:10:05.946Z,204.45
2023-04-18T01:11:05.999Z,207.72
2023-04-18T01:12:05.932Z,209.54
2023-04-18T01:13:05.994Z,202.94
2023-04-18T01:14:06.016Z,206.00
2023-04-18T01:15:05.997Z,206.54
2023-04-18T01:16:06.008Z,209.12
2023-04-18T01:17:06.060Z,211.06
2023-04-18T01:18:06.041Z,205.25
2023-04-18T01:19:06.088Z,204.83
2023-04-18T01:20:06.118Z,205.22
2023-04-18T01:21:06.100Z,205.50
2023-04-18T01:22:06.128Z,206.81
2023-04-18T01:23:06.137Z,203.69
2023-04-18T01:24:06.155Z,204.93
2023-04-18T01:25:06.210Z,204.10
2023-04-18T01:26:06.152Z,201.87
2023-04-18T01:27:06.185Z,201.69
2023-04-18T01:28:06.251Z,200.73
2023-04-18T01:29:06.260Z,201.60
2023-04-18T01:30:06.248Z,202.75
2023-04-18T01:31:06.298Z,202.46
2023-04-18T01:32:06.271Z,202.92
2023-04-18T01:33:06.385Z,198.30
2023-04-18T01:34:06.282Z,204.84
2023-04-18T01:35:06.338Z,204.52
2023-04-18T01:36:06.336Z,202.97
2023-04-18T01:37:06.335Z,203.28
2023-04-18T01:38:06.394Z,199.37
2023-04-18T01:39:06.398Z,201.01
2023-04-18T01:40:06.495Z,197.76
2023-04-18T01:41:06.451Z,198.80
2023-04-18T01:42:06.483Z,193.49
2023-04-18T01:43:06.553Z,197.01
2023-04-18T01:44:06.528Z,193.71
2023-04-18T01:45:06.524Z,198.10
2023-04-18T01:46:06.604Z,197.83
2023-04-18T01:47:06.578Z,201.57
2023-04-18T01:48:06.577Z,191.13
2023-04-18T01:49:06.625Z,196.05
2023-04-18T01:50:06.650Z,198.44
2023-04-18T01:51:06.672Z,199.53
2023-04-18T01:52:06.681Z,191.74
2023-04-18T01:53:06.680Z,194.95
2023-04-18T01:54:06.717Z,192.60
2023-04-18T01:55:06.738Z,192.92
2023-04-18T01:56:06.742Z,194.18
2023-04-18T01:57:06.792Z,190.22
2023-04-18T01:58:07.462Z,200.13
2023-04-18T01:59:06.838Z,197.59
2023-04-18T02:00:06.848Z,196.73
2023-04-18T02:01:06.938Z,189.84
2023-04-18T02:02:06.935Z,196.40
2023-04-18T02:03:06.985Z,195.44
2023-04-18T02:04:06.905Z,193.44
2023-04-18T02:05:06.953Z,191.65
2023-04-18T02:06:06.978Z,193.11
2023-04-18T02:07:07.026Z,188.11
2023-04-18T02:08:07.025Z,191.24
2023-04-18T02:09:07.002Z,189.67
2023-04-18T02:10:07.047Z,198.10
2023-04-18T02:11:07.049Z,190.50
2023-04-18T02:12:07.104Z,190.72
2023-04-18T02:13:07.128Z,189.58
2023-04-18T02:14:07.151Z,189.08
2023-04-18T02:15:07.156Z,188.58
2023-04-18T02:16:07.266Z,190.16
2023-04-18T02:17:07.217Z,197.41
2023-04-18T02:18:07.307Z,192.36
2023-04-18T02:19:07.237Z,187.43
2023-04-18T02:20:07.288Z,186.99
2023-04-18T02:21:07.290Z,189.40
2023-04-18T02:22:07.303Z,191.46
2023-04-18T02:23:07.338Z,195.00
2023-04-18T02:24:07.341Z,187.75
2023-04-18T02:25:07.381Z,194.13
2023-04-18T02:26:07.371Z,184.97
2023-04-18T02:27:07.427Z,192.36
2023-04-18T02:28:07.411Z,190.27
2023-04-18T02:29:07.443Z,187.10
2023-04-18T02:30:07.530Z,192.30
2023-04-18T02:31:07.486Z,181.78
2023-04-18T02:32:07.541Z,197.93
2023-04-18T02:33:07.641Z,187.97
2023-04-18T02:34:07.516Z,190.01
2023-04-18T02:35:07.554Z,185.13
2023-04-18T02:36:07.633Z,183.30
2023-04-18T02:37:07.635Z,191.24
2023-04-18T02:38:07.663Z,185.86
2023-04-18T02:39:07.692Z,185.17
2023-04-18T02:40:07.653Z,191.39
2023-04-18T02:41:07.738Z,187.02
2023-04-18T02:42:07.711Z,181.89
2023-04-18T02:43:07.774Z,186.25
2023-04-18T02:44:07.758Z,191.79
2023-04-18T02:45:07.794Z,183.21
2023-04-18T02:46:07.837Z,187.88
2023-04-18T02:47:07.805Z,181.11
2023-04-18T02:48:07.931Z,185.56
2023-04-18T02:49:07.864Z,190.20
2023-04-18T02:50:07.848Z,183.98
2023-04-18T02:51:07.928Z,193.12
2023-04-18T02:52:07.910Z,186.32
2023-04-18T02:53:07.950Z,185.19
2023-04-18T02:54:07.972Z,188.86
2023-04-18T02:55:08.029Z,183.84
2023-04-18T02:56:08.040Z,187.62
2023-04-18T02:57:08.075Z,180.52
2023-04-18T02:58:08.041Z,186.18
2023-04-18T02:59:08.970Z,188.24
2023-04-18T03:00:08.096Z,183.31
2023-04-18T03:01:08.134Z,183.00
2023-04-18T03:02:08.159Z,183.32
2023-04-18T03:03:08.183Z,183.60
2023-04-18T03:04:08.156Z,179.83
2023-04-18T03:05:08.246Z,180.68
2023-04-18T03:06:08.200Z,182.73
2023-04-18T03:07:08.240Z,181.69
2023-04-18T03:08:08.262Z,184.98
2023-04-18T03:09:08.273Z,186.44
2023-04-18T03:10:08.297Z,186.09
2023-04-18T03:11:08.331Z,179.56
2023-04-18T03:12:08.346Z,186.10
2023-04-18T03:13:08.411Z,179.60
2023-04-18T03:14:08.365Z,184.59
2023-04-18T03:15:08.409Z,179.74
2023-04-18T03:16:08.481Z,180.82
2023-04-18T03:17:08.443Z,176.95
2023-04-18T03:18:08.513Z,181.11
2023-04-18T03:19:08.526Z,182.55
2023-04-18T03:20:08.519Z,181.47
2023-04-18T03:21:08.543Z,184.65
2023-04-18T03:22:08.574Z,177.81
2023-04-18T03:23:08.599Z,177.72
2023-04-18T03:24:09.685Z,184.51
2023-04-18T03:25:08.646Z,175.63
2023-04-18T03:26:08.570Z,186.71
2023-04-18T03:27:08.607Z,178.29
2023-04-18T03:28:08.612Z,176.11
2023-04-18T03:29:08.560Z,181.44
2023-04-18T03:30:08.567Z,179.69
2023-04-18T03:31:08.604Z,178.73
2023-04-18T03:32:08.679Z,178.32
2023-04-18T03:33:08.554Z,179.77
2023-04-18T03:34:08.537Z,175.42
2023-04-18T03:35:08.545Z,177.37
2023-04-18T03:36:08.515Z,175.88
2023-04-18T03:37:08.526Z,175.68
2023-04-18T03:38:08.524Z,176.84
2023-04-18T03:39:08.498Z,181.95
2023-04-18T03:40:08.467Z,181.18
2023-04-18T03:41:08.474Z,177.00
2023-04-18T03:42:08.492Z,175.69
2023-04-18T03:43:08.464Z,176.97
2023-04-18T03:44:08.498Z,175.00
2023-04-18T03:45:08.435Z,177.54
2023-04-18T03:46:08.493Z,174.37
2023-04-18T03:47:08.455Z,176.14
2023-04-18T03:48:08.414Z,175.46
2023-04-18T03:49:08.428Z,181.94
2023-04-18T03:50:08.419Z,172.38
2023-04-18T03:51:08.408Z,172.39
2023-04-18T03:52:08.445Z,172.24
2023-04-18T03:53:08.392Z,173.55
2023-04-18T03:54:08.425Z,174.44
2023-04-18T03:55:08.375Z,175.36
2023-04-18T03:56:08.392Z,175.60
2023-04-18T03:57:08.392Z,173.41
2023-04-18T03:58:08.413Z,172.16
2023-04-18T03:59:08.405Z,176.74
2023-04-18T04:00:08.368Z,173.32
2023-04-18T04:01:08.372Z,172.43
2023-04-18T04:02:08.416Z,168.11
2023-04-18T04:03:08.521Z,167.19
2023-04-18T04:04:08.403Z,156.78
2023-04-18T04:05:08.374Z,144.45
2023-04-18T04:06:08.305Z,137.24
2023-04-18T04:07:08.315Z,130.77
2023-04-18T04:08:08.358Z,122.92
2023-04-18T04:09:08.304Z,113.51
2023-04-18T04:10:08.270Z,105.78
2023-04-18T04:11:08.273Z,98.45
2023-04-18T04:12:08.297Z,93.40
2023-04-18T04:13:08.302Z,88.79
2023-04-18T04:14:08.289Z,78.78
2023-04-18T04:15:08.291Z,74.21
2023-04-18T04:16:08.293Z,68.21
2023-04-18T04:17:08.248Z,66.98
2023-04-18T04:18:08.307Z,56.58
2023-04-18T04:19:08.554Z,54.68
2023-04-18T04:20:08.312Z,45.22
2023-04-18T04:21:08.205Z,44.14
2023-04-18T04:22:08.232Z,43.60
2023-04-18T04:23:08.222Z,37.01
2023-04-18T04:24:08.199Z,33.43
2023-04-18T04:25:08.239Z,27.26
2023-04-18T04:26:08.170Z,32.64
2023-04-18T04:27:08.202Z,26.42
2023-04-18T04:28:08.208Z,28.09
2023-04-18T04:29:08.165Z,29.99
2023-04-18T04:30:08.119Z,29.00
2023-04-18T04:31:08.256Z,33.79
2023-04-18T04:32:08.292Z,34.74
2023-04-18T04:33:08.176Z,34.83
2023-04-18T04:34:08.116Z,41.86
2023-04-18T04:35:08.088Z,49.89
2023-04-18T04:36:08.128Z,52.15
2023-04-18T04:37:08.169Z,55.26
2023-04-18T04:38:08.092Z,57.42
2023-04-18T04:39:08.129Z,58.84
2023-04-18T04:40:08.103Z,60.26
2023-04-18T04:41:08.054Z,59.17
2023-04-18T04:42:08.060Z,63.09
2023-04-18T04:43:08.087Z,65.45
2023-04-18T04:44:08.144Z,66.99
2023-04-18T04:45:08.186Z,70.07
2023-04-18T04:46:08.251Z,66.14
2023-04-18T04:47:08.274Z,70.72
2023-04-18T04:48:08.328Z,71.95
2023-04-18T04:49:08.337Z,72.45
2023-04-18T04:50:08.429Z,75.91
2023-04-18T04:51:08.420Z,76.19
2023-04-18T04:52:08.483Z,76.50
2023-04-18T04:53:08.426Z,77.85
2023-04-18T04:54:08.460Z,74.95
2023-04-18T04:55:08.520Z,77.18
2023-04-18T04:56:08.540Z,77.17
2023-04-18T04:57:08.595Z,80.56
2023-04-18T04:58:08.621Z,85.68
2023-04-18T04:59:08.674Z,81.83
2023-04-18T05:00:08.711Z,83.62
2023-04-18T05:01:08.806Z,84.38
2023-04-18T05:02:08.848Z,85.71
2023-04-18T05:03:09.012Z,87.15
2023-04-18T05:04:08.970Z,82.50
2023-04-18T05:05:08.895Z,83.50
2023-04-18T05:06:08.920Z,85.19
2023-04-18T05:07:08.951Z,83.64
2023-04-18T05:08:09.022Z,85.75
2023-04-18T05:09:09.001Z,86.01
2023-04-18T05:10:09.074Z,84.62
2023-04-18T05:11:09.095Z,88.33
2023-04-18T05:12:09.125Z,86.41
2023-04-18T05:13:09.212Z,82.74
2023-04-18T05:14:09.245Z,85.81
2023-04-18T05:15:09.276Z,90.25
2023-04-18T05:16:09.369Z,84.02
2023-04-18T05:17:09.462Z,86.72
2023-04-18T05:18:09.428Z,85.52
2023-04-18T05:19:09.417Z,85.58
2023-04-18T05:20:09.451Z,91.47
2023-04-18T05:21:09.497Z,89.29
2023-04-18T05:22:09.531Z,89.61
2023-04-18T05:23:09.567Z,89.52
2023-04-18T05:24:09.645Z,89.92
2023-04-18T05:25:10.475Z,87.69
2023-04-18T05:26:09.695Z,88.42
2023-04-18T05:27:09.737Z,87.01
2023-04-18T05:28:09.786Z,91.59
2023-04-18T05:29:09.827Z,93.27
2023-04-18T05:30:09.822Z,88.86
2023-04-18T05:31:09.937Z,91.21
2023-04-18T05:32:09.897Z,89.29
2023-04-18T05:33:09.974Z,92.23
2023-04-18T05:34:10.016Z,86.87
2023-04-18T05:35:10.023Z,90.87
2023-04-18T05:36:10.024Z,87.74
2023-04-18T05:37:10.075Z,91.03
2023-04-18T05:38:10.153Z,91.94
2023-04-18T05:39:10.192Z,93.94
2023-04-18T05:40:10.336Z,89.98
2023-04-18T05:41:10.235Z,103.38
2023-04-18T05:42:10.321Z,98.47
2023-04-18T05:43:10.327Z,97.50
2023-04-18T05:44:10.959Z,98.12
2023-04-18T05:45:10.401Z,97.17
2023-04-18T05:46:10.518Z,102.58
2023-04-18T05:47:10.415Z,107.73
2023-04-18T05:48:10.557Z,108.28
2023-04-18T05:49:10.432Z,112.17
2023-04-18T05:50:10.385Z,110.82
2023-04-18T05:51:11.621Z,105.39
2023-04-18T05:52:10.400Z,106.10
2023-04-18T05:53:10.408Z,103.27
2023-04-18T05:54:10.408Z,102.93
2023-04-18T05:55:10.449Z,99.49
2023-04-18T05:56:10.411Z,101.81
2023-04-18T05:57:10.953Z,103.00
2023-04-18T05:58:10.430Z,100.82
2023-04-18T05:59:10.441Z,97.99
2023-04-18T06:00:10.411Z,99.36
2023-04-18T06:01:10.519Z,98.75
2023-04-18T06:02:10.472Z,96.76
2023-04-18T06:03:11.354Z,101.61
2023-04-18T06:04:10.525Z,101.66
2023-04-18T06:05:10.698Z,99.08
2023-04-18T06:06:10.443Z,99.95
2023-04-18T06:07:10.456Z,102.18
2023-04-18T06:08:10.454Z,99.02
2023-04-18T06:09:10.458Z,101.66
2023-04-18T06:10:10.511Z,98.49
2023-04-18T06:11:10.498Z,94.60
2023-04-18T06:12:10.505Z,96.20
2023-04-18T06:13:10.524Z,95.80
2023-04-18T06:14:10.491Z,94.88
2023-04-18T06:15:10.502Z,94.07
2023-04-18T06:16:10.574Z,95.23
2023-04-18T06:17:10.513Z,96.70
2023-04-18T06:18:10.529Z,92.66
2023-04-18T06:19:10.523Z,96.49
2023-04-18T06:20:10.542Z,96.44
2023-04-18T06:21:10.557Z,94.05
2023-04-18T06:22:10.550Z,91.89
2023-04-18T06:23:10.557Z,94.02
2023-04-18T06:24:10.612Z,86.78
2023-04-18T06:25:10.627Z,84.95
2023-04-18T06:26:10.589Z,86.14
2023-04-18T06:27:20.467Z,89.41
2023-04-18T06:28:11.622Z,89.44
2023-04-18T06:29:10.570Z,82.59
2023-04-18T06:30:10.951Z,84.03
2023-04-18T06:31:10.577Z,83.30
2023-04-18T06:32:10.632Z,82.18
2023-04-18T06:33:10.952Z,84.15
2023-04-18T06:34:10.571Z,84.18
2023-04-18T06:35:11.456Z,81.60
2023-04-18T06:36:10.531Z,83.73
2023-04-18T06:37:10.522Z,78.54
2023-04-18T06:38:10.495Z,75.70
2023-04-18T06:39:10.524Z,73.12
2023-04-18T06:40:10.932Z,72.83
2023-04-18T06:41:10.486Z,72.19
2023-04-18T06:42:10.494Z,72.02
2023-04-18T06:43:10.489Z,69.99
2023-04-18T06:44:10.586Z,70.95
2023-04-18T06:45:10.558Z,72.55
2023-04-18T06:46:10.496Z,69.59
2023-04-18T06:47:10.456Z,71.09
2023-04-18T06:48:10.547Z,62.59
2023-04-18T06:49:10.469Z,66.24
2023-04-18T06:50:10.443Z,64.61
2023-04-18T06:51:10.431Z,60.18
2023-04-18T06:52:10.507Z,61.16
2023-04-18T06:53:10.967Z,56.89
2023-04-18T06:54:10.401Z,55.43
2023-04-18T06:55:10.400Z,54.51
2023-04-18T06:56:10.411Z,50.95
2023-04-18T06:57:10.411Z,54.57
2023-04-18T06:58:10.380Z,52.25
2023-04-18T06:59:10.379Z,51.74
2023-04-18T07:00:10.418Z,54.82
2023-04-18T07:01:10.461Z,54.98
2023-04-18T07:02:10.396Z,53.07
2023-04-18T07:03:11.127Z,53.96
2023-04-18T07:04:10.523Z,56.59
2023-04-18T07:05:10.330Z,55.58
2023-04-18T07:06:10.333Z,53.98
2023-04-18T07:07:10.351Z,54.84
2023-04-18T07:08:10.344Z,50.88
2023-04-18T07:09:10.309Z,51.22
2023-04-18T07:10:10.303Z,52.51
2023-04-18T07:11:10.307Z,59.97
2023-04-18T07:12:10.321Z,59.40
2023-04-18T07:13:10.259Z,63.30
2023-04-18T07:14:10.292Z,64.47
2023-04-18T07:15:10.248Z,65.63
2023-04-18T07:16:10.367Z,68.82
2023-04-18T07:17:10.916Z,71.12
2023-04-18T07:18:10.252Z,71.61
2023-04-18T07:19:10.266Z,71.24
2023-04-18T07:20:11.611Z,67.62
2023-04-18T07:21:10.282Z,74.32
2023-04-18T07:22:10.279Z,73.94
2023-04-18T07:23:10.350Z,77.23
2023-04-18T07:24:10.244Z,75.54
2023-04-18T07:25:10.249Z,77.00
2023-04-18T07:26:10.250Z,80.41
2023-04-18T07:27:10.268Z,78.58
2023-04-18T07:28:10.273Z,82.06
2023-04-18T07:29:10.243Z,83.35
2023-04-18T07:30:10.287Z,80.64
2023-04-18T07:31:10.360Z,79.78
2023-04-18T07:32:10.296Z,83.18
2023-04-18T07:33:10.304Z,83.05
2023-04-18T07:34:10.320Z,78.80
2023-04-18T07:35:10.473Z,80.92
2023-04-18T07:36:10.267Z,83.47
2023-04-18T07:37:10.288Z,91.11
2023-04-18T07:38:10.281Z,96.87
2023-04-18T07:39:10.373Z,107.14
2023-04-18T07:40:10.396Z,111.14
2023-04-18T07:41:10.454Z,110.71
2023-04-18T07:42:10.537Z,111.63
2023-04-18T07:43:14.439Z,116.03
2023-04-18T07:44:10.544Z,116.20
2023-04-18T07:45:10.554Z,117.76
2023-04-18T07:46:10.581Z,121.37
2023-04-18T07:47:10.589Z,124.30
2023-04-18T07:48:10.541Z,129.85
2023-04-18T07:49:10.479Z,137.00
2023-04-18T07:50:10.916Z,138.13
2023-04-18T07:51:10.479Z,138.46
2023-04-18T07:52:10.495Z,142.30
2023-04-18T07:53:10.452Z,142.77
2023-04-18T07:54:10.458Z,141.92
2023-04-18T07:55:10.914Z,147.40
2023-04-18T07:56:10.466Z,145.95
2023-04-18T07:57:10.479Z,145.29
2023-04-18T07:58:10.420Z,149.92
2023-04-18T07:59:10.437Z,148.10
2023-04-18T08:00:10.532Z,150.43
2023-04-18T08:01:10.410Z,156.43
2023-04-18T08:02:10.514Z,153.00
2023-04-18T08:03:10.621Z,153.82
2023-04-18T08:04:10.773Z,149.34
2023-04-18T08:05:10.536Z,152.41
2023-04-18T08:06:10.440Z,153.11
2023-04-18T08:07:10.380Z,155.08
2023-04-18T08:08:10.407Z,153.44
2023-04-18T08:09:10.409Z,150.90
2023-04-18T08:10:10.351Z,146.50
2023-04-18T08:11:10.384Z,146.68
2023-04-18T08:12:10.367Z,151.29
2023-04-18T08:13:10.329Z,144.10
2023-04-18T08:14:10.332Z,134.13
2023-04-18T08:15:10.337Z,126.24
2023-04-18T08:16:10.423Z,121.65
2023-04-18T08:17:10.316Z,120.82
2023-04-18T08:18:10.323Z,115.39
2023-04-18T08:19:10.319Z,106.24
2023-04-18T08:20:10.353Z,108.15
2023-04-18T08:21:10.290Z,111.06
2023-04-18T08:22:10.277Z,102.42
2023-04-18T08:23:12.844Z,99.97
2023-04-18T08:24:10.301Z,88.63
2023-04-18T08:25:10.417Z,83.50
2023-04-18T08:26:10.258Z,80.82
2023-04-18T08:27:10.266Z,39.00
2023-04-18T08:28:10.209Z,26.67
2023-04-18T08:29:10.219Z,26.47
2023-04-18T08:30:10.239Z,25.00
2023-04-18T08:31:10.260Z,30.04
2023-04-18T08:32:10.230Z,22.28
2023-04-18T08:33:10.295Z,26.71
2023-04-18T08:34:10.230Z,26.66
2023-04-18T08:35:10.173Z,25.00
2023-04-18T08:36:10.276Z,25.00
2023-04-18T08:37:10.171Z,24.92
2023-04-18T08:38:10.237Z,45.32
2023-04-18T08:39:10.157Z,48.91
2023-04-18T08:40:10.201Z,30.11
2023-04-18T08:41:10.157Z,29.90
2023-04-18T08:42:10.173Z,25.00
2023-04-18T08:43:10.121Z,38.11
2023-04-18T08:44:10.138Z,45.77
2023-04-18T08:45:10.128Z,27.42
2023-04-18T08:46:10.181Z,25.88
2023-04-18T08:47:10.143Z,43.87
2023-04-18T08:48:10.444Z,37.26
2023-04-18T08:49:11.904Z,57.25
2023-04-18T08:50:10.108Z,51.14
2023-04-18T08:51:10.071Z,45.01
2023-04-18T08:52:10.079Z,40.36
2023-04-18T08:53:10.102Z,31.07
2023-04-18T08:54:10.098Z,27.34
2023-04-18T08:55:10.042Z,44.07
2023-04-18T08:56:10.034Z,20.09
2023-04-18T08:57:10.050Z,50.34
2023-04-18T08:58:10.127Z,57.97
2023-04-18T08:59:10.195Z,34.73
2023-04-18T09:00:10.282Z,32.64
2023-04-18T09:01:10.289Z,26.93
2023-04-18T09:02:10.381Z,50.69
2023-04-18T09:03:10.470Z,45.35
2023-04-18T09:04:10.436Z,48.01
2023-04-18T09:05:10.479Z,27.54
2023-04-18T09:06:10.531Z,46.36
2023-04-18T09:07:10.591Z,21.57
2023-04-18T09:08:10.603Z,48.37
2023-04-18T09:09:10.704Z,41.17
2023-04-18T09:10:10.711Z,40.38
2023-04-18T09:11:10.776Z,30.82
2023-04-18T09:12:10.857Z,29.81
2023-04-18T09:13:10.874Z,29.67
2023-04-18T09:14:11.047Z,61.19
2023-04-18T09:15:11.015Z,65.36
2023-04-18T09:16:11.075Z,56.55
2023-04-18T09:17:11.059Z,56.49
2023-04-18T09:18:11.119Z,40.33
2023-04-18T09:19:11.305Z,40.21
2023-04-18T09:20:11.188Z,48.39
2023-04-18T09:21:11.195Z,42.99
2023-04-18T09:22:11.267Z,43.28
2023-04-18T09:23:11.685Z,39.46
2023-04-18T09:24:11.499Z,46.70
2023-04-18T09:25:11.216Z,38.29
2023-04-18T09:26:11.232Z,35.61
2023-04-18T09:27:11.910Z,53.52
2023-04-18T09:28:11.287Z,61.66
2023-04-18T09:29:11.410Z,61.15
2023-04-18T09:30:11.294Z,84.59
2023-04-18T09:31:11.335Z,74.46
2023-04-18T09:32:11.359Z,73.95
2023-04-18T09:33:11.386Z,81.09
2023-04-18T09:34:11.404Z,77.69
2023-04-18T09:35:11.442Z,65.39
2023-04-18T09:36:11.850Z,76.16
2023-04-18T09:37:11.504Z,80.88
2023-04-18T09:38:11.466Z,88.69
2023-04-18T09:39:11.651Z,91.44
2023-04-18T09:40:11.648Z,104.86
2023-04-18T09:41:11.845Z,101.47
2023-04-18T09:42:11.671Z,94.57
2023-04-18T09:43:11.668Z,95.05
2023-04-18T09:44:14.537Z,91.35
2023-04-18T09:45:11.674Z,99.78
2023-04-18T09:46:11.916Z,94.93
2023-04-18T09:47:11.645Z,95.91
2023-04-18T09:48:11.754Z,91.49
2023-04-18T09:49:11.729Z,97.00
2023-04-18T09:50:11.710Z,103.87
2023-04-18T09:51:11.678Z,114.47
2023-04-18T09:52:11.927Z,87.73
2023-04-18T09:53:11.672Z,77.22
2023-04-18T09:54:11.793Z,79.94
2023-04-18T09:55:11.707Z,79.67
2023-04-18T09:56:11.591Z,86.40
2023-04-18T09:57:11.584Z,86.56
2023-04-18T09:58:11.596Z,78.30
2023-04-18T09:59:11.696Z,73.73
2023-04-18T10:00:11.574Z,77.57
2023-04-18T10:01:11.582Z,82.47
2023-04-18T10:02:11.631Z,85.69
2023-04-18T10:03:11.672Z,69.40
2023-04-18T10:04:11.716Z,66.81
2023-04-18T10:05:11.574Z,90.58
2023-04-18T10:06:11.542Z,77.00
2023-04-18T10:07:12.369Z,62.76
2023-04-18T10:08:11.511Z,62.18
2023-04-18T10:09:11.704Z,71.53
2023-04-18T10:10:11.518Z,63.68
2023-04-18T10:11:11.541Z,52.34
2023-04-18T10:12:11.474Z,94.47
2023-04-18T10:13:11.499Z,79.90
2023-04-18T10:14:11.543Z,69.32
2023-04-18T10:15:11.497Z,82.89
2023-04-18T10:16:11.910Z,79.16
2023-04-18T10:17:11.437Z,69.95
2023-04-18T10:18:11.488Z,63.50
2023-04-18T10:19:11.702Z,55.80
2023-04-18T10:20:11.442Z,43.21
2023-04-18T10:21:11.437Z,53.68
2023-04-18T10:22:11.443Z,60.69
2023-04-18T10:23:11.407Z,39.91
2023-04-18T10:24:11.447Z,44.54
2023-04-18T10:25:11.431Z,42.92
2023-04-18T10:26:11.380Z,83.64
2023-04-18T10:27:11.840Z,63.62
2023-04-18T10:28:11.425Z,78.01
2023-04-18T10:29:11.392Z,116.65
2023-04-18T10:30:11.348Z,90.11
2023-04-18T10:31:11.416Z,104.20
2023-04-18T10:32:11.810Z,102.29
2023-04-18T10:33:18.482Z,53.96
2023-04-18T10:34:12.523Z,5.38
2023-04-18T10:35:11.322Z,0.00
2023-04-18T10:36:11.293Z,9.10
2023-04-18T10:37:11.310Z,1.82
2023-04-18T10:38:11.352Z,0.00
2023-04-18T10:39:11.309Z,22.83
2023-04-18T10:40:11.316Z,24.67
2023-04-18T10:41:11.281Z,27.95
2023-04-18T10:42:11.280Z,25.00
2023-04-18T10:43:11.278Z,26.30
2023-04-18T10:44:11.237Z,39.49
2023-04-18T10:45:11.249Z,41.74
2023-04-18T10:46:23.829Z,35.30
2023-04-18T10:47:12.236Z,25.12
2023-04-18T10:48:11.374Z,33.31
2023-04-18T10:49:11.433Z,35.35
2023-04-18T10:50:11.248Z,39.42
2023-04-18T10:51:11.197Z,44.63
2023-04-18T10:52:13.327Z,45.29
2023-04-18T10:53:11.176Z,41.24
2023-04-18T10:54:11.178Z,45.68
2023-04-18T10:55:12.350Z,52.87
2023-04-18T10:56:11.177Z,51.85
2023-04-18T10:57:11.250Z,68.30
2023-04-18T10:58:11.271Z,51.99
2023-04-18T10:59:11.356Z,65.11
2023-04-18T11:00:11.402Z,80.89
2023-04-18T11:01:11.488Z,46.40
2023-04-18T11:02:11.563Z,37.04
2023-04-18T11:03:11.672Z,39.55
2023-04-18T11:04:11.729Z,35.28
2023-04-18T11:05:11.703Z,35.10
2023-04-18T11:06:11.809Z,39.96
2023-04-18T11:07:11.813Z,55.25
2023-04-18T11:08:11.877Z,47.99
2023-04-18T11:09:11.947Z,51.69
2023-04-18T11:10:11.963Z,39.81
2023-04-18T11:11:12.048Z,66.53
2023-04-18T11:12:12.171Z,49.77
2023-04-18T11:13:12.168Z,37.79
2023-04-18T11:14:12.357Z,38.54
2023-04-18T11:15:12.277Z,52.52
2023-04-18T11:16:12.351Z,42.06
2023-04-18T11:17:12.360Z,38.99
2023-04-18T11:18:12.491Z,44.91
2023-04-18T11:19:12.518Z,54.80
2023-04-18T11:20:12.938Z,60.43
2023-04-18T11:21:12.626Z,57.88
2023-04-18T11:22:12.674Z,36.42
2023-04-18T11:23:12.740Z,26.49
2023-04-18T11:24:12.983Z,44.79
2023-04-18T11:25:13.303Z,30.48
2023-04-18T11:26:12.901Z,28.18
2023-04-18T11:27:13.006Z,25.00
2023-04-18T11:28:13.027Z,30.00
2023-04-18T11:29:13.088Z,25.00
2023-04-18T11:30:13.166Z,26.04
2023-04-18T11:31:13.207Z,29.03
2023-04-18T11:32:13.483Z,25.00
2023-04-18T11:33:13.279Z,25.00
2023-04-18T11:34:13.502Z,25.56
2023-04-18T11:35:13.415Z,32.70
2023-04-18T11:36:13.452Z,29.59
2023-04-18T11:37:13.485Z,25.00
2023-04-18T11:38:13.612Z,26.36
2023-04-18T11:39:13.604Z,27.51
2023-04-18T11:40:13.608Z,25.87
2023-04-18T11:41:13.616Z,27.48
2023-04-18T11:42:13.625Z,25.84
2023-04-18T11:43:13.658Z,29.50
2023-04-18T11:44:13.750Z,25.00
2023-04-18T11:45:13.745Z,25.00
2023-04-18T11:46:13.731Z,29.89
2023-04-18T11:47:13.669Z,25.00
2023-04-18T11:48:13.723Z,27.64
2023-04-18T11:49:13.736Z,25.90
2023-04-18T11:50:13.732Z,30.64
2023-04-18T11:51:13.791Z,28.89
2023-04-18T11:52:13.873Z,25.00
2023-04-18T11:53:13.878Z,27.30
2023-04-18T11:54:14.056Z,25.16
2023-04-18T11:55:13.882Z,30.76
2023-04-18T11:56:13.940Z,30.79
2023-04-18T11:57:13.934Z,28.29
2023-04-18T11:58:13.939Z,70.46
2023-04-18T11:59:13.948Z,165.56
2023-04-18T12:00:13.992Z,235.36
2023-04-18T12:01:13.960Z,254.63
2023-04-18T12:02:16.707Z,264.88
2023-04-18T12:03:14.111Z,253.92
2023-04-18T12:04:14.453Z,252.95
2023-04-18T12:05:14.380Z,249.78
2023-04-18T12:06:14.327Z,248.07
2023-04-18T12:07:13.953Z,250.57
2023-04-18T12:08:13.968Z,249.65
2023-04-18T12:09:13.990Z,248.93
2023-04-18T12:10:13.970Z,246.20
2023-04-18T12:11:13.937Z,249.77
2023-04-18T12:12:13.934Z,249.94
2023-04-18T12:13:13.926Z,248.73
2023-04-18T12:14:14.113Z,249.24
2023-04-18T12:15:13.955Z,249.09
2023-04-18T12:16:13.964Z,250.00
2023-04-18T12:17:13.918Z,250.00
2023-04-18T12:18:13.887Z,241.84
2023-04-18T12:19:13.894Z,243.30
2023-04-18T12:20:14.021Z,244.61
2023-04-18T12:21:13.837Z,248.44
2023-04-18T12:22:13.846Z,246.89
2023-04-18T12:23:13.863Z,250.00
2023-04-18T12:24:14.135Z,247.78
2023-04-18T12:25:13.843Z,248.82
2023-04-18T12:26:13.818Z,249.68
2023-04-18T12:27:13.823Z,250.00
2023-04-18T12:28:13.800Z,247.51
2023-04-18T12:29:13.989Z,246.70
2023-04-18T12:30:13.830Z,249.07
2023-04-18T12:31:13.779Z,248.91
2023-04-18T12:32:13.817Z,248.48
2023-04-18T12:33:13.760Z,249.28
2023-04-18T12:34:13.963Z,248.12
2023-04-18T12:35:13.783Z,246.87
2023-04-18T12:36:13.792Z,247.67
2023-04-18T12:37:13.757Z,250.00
2023-04-18T12:38:13.753Z,249.25
2023-04-18T12:39:13.744Z,248.44
2023-04-18T12:40:13.794Z,250.00
2023-04-18T12:41:13.741Z,248.63